createdAt,value
2019-02-17T00:00:01.284Z,10.27
2019-02-17T00:02:28.030Z,10.23
2019-02-17T00:04:54.821Z,9.37
2019-02-17T00:07:21.868Z,10.57
2019-02-17T00:09:48.785Z,10.13
2019-02-17T00:12:15.649Z,11.17
2019-02-17T00:14:42.283Z,8.13
2019-02-17T00:17:08.926Z,10.60
2019-02-17T00:19:36.047Z,10.40
2019-02-17T00:22:03.083Z,9.70
2019-02-17T00:24:29.796Z,10.13
2019-02-17T00:26:56.693Z,10.23
2019-02-17T00:29:23.983Z,10.03
2019-02-17T00:31:51.071Z,8.90
2019-02-17T00:34:31.244Z,8.97
2019-02-17T00:36:58.273Z,10.17
2019-02-17T00:39:25.389Z,11.27
2019-02-17T00:41:52.182Z,10.53
2019-02-17T00:44:19.210Z,11.73
2019-02-17T00:46:45.950Z,8.70
2019-02-17T00:49:12.808Z,11.37
2019-02-17T00:51:39.896Z,11.67
2019-02-17T00:54:07.347Z,11.50
2019-02-17T00:56:34.294Z,13.20
2019-02-17T00:59:09.617Z,12.23
2019-02-17T01:01:30.056Z,11.33
2019-02-17T01:03:57.261Z,13.77
2019-02-17T01:06:24.708Z,9.77
2019-02-17T01:08:52.484Z,11.77
2019-02-17T01:11:20.042Z,9.13
2019-02-17T01:13:47.607Z,10.87
2019-02-17T01:16:15.053Z,10.77
2019-02-17T01:18:42.197Z,11.27
2019-02-17T01:21:09.666Z,12.23
2019-02-17T01:23:37.115Z,12.60
2019-02-17T01:26:05.026Z,10.20
2019-02-17T01:28:32.364Z,12.30
2019-02-17T01:30:59.468Z,11.23
2019-02-17T01:33:26.637Z,12.00
2019-02-17T01:35:54.130Z,12.00
2019-02-17T01:38:21.230Z,11.00
2019-02-17T01:40:48.431Z,12.80
2019-02-17T01:43:15.553Z,13.53
2019-02-17T01:45:43.003Z,12.67
2019-02-17T01:48:10.525Z,13.93
2019-02-17T01:50:38.027Z,12.20
2019-02-17T01:53:05.555Z,13.77
2019-02-17T01:55:33.482Z,14.37
2019-02-17T01:58:00.610Z,13.83
2019-02-17T02:00:27.710Z,15.93
2019-02-17T02:02:55.708Z,15.10
2019-02-17T02:05:22.855Z,16.10
2019-02-17T02:07:49.964Z,13.50
2019-02-17T02:10:17.169Z,13.53
2019-02-17T02:12:44.268Z,15.30
2019-02-17T02:15:11.767Z,15.07
2019-02-17T02:20:13.648Z,13.87
2019-02-17T02:22:40.667Z,14.20
2019-02-17T02:28:02.706Z,13.70
2019-02-17T02:30:29.819Z,14.77
2019-02-17T02:32:56.925Z,13.40
2019-02-17T02:35:24.583Z,13.73
2019-02-17T02:37:51.759Z,12.80
2019-02-17T02:40:19.233Z,14.63
2019-02-17T02:42:46.385Z,13.87
2019-02-17T02:45:13.514Z,14.63
2019-02-17T02:47:40.812Z,14.97
2019-02-17T02:50:08.874Z,13.03
2019-02-17T02:52:35.990Z,13.27
2019-02-17T02:55:03.098Z,14.30
2019-02-17T02:57:30.294Z,13.83
2019-02-17T02:59:57.414Z,14.87
2019-02-17T03:02:24.502Z,14.50
2019-02-17T03:05:11.033Z,14.20
2019-02-17T03:07:37.869Z,15.00
2019-02-17T03:10:05.165Z,13.60
2019-02-17T03:12:32.134Z,14.73
2019-02-17T03:14:59.010Z,14.60
2019-02-17T03:20:14.214Z,14.93
2019-02-17T03:22:40.950Z,15.67
2019-02-17T03:25:08.072Z,13.83
2019-02-17T03:27:35.135Z,14.53
2019-02-17T03:30:05.395Z,13.43
2019-02-17T03:32:31.002Z,15.10
2019-02-17T03:34:58.716Z,15.83
2019-02-17T03:37:26.155Z,16.20
2019-02-17T03:39:53.727Z,14.77
2019-02-17T03:42:21.229Z,14.53
2019-02-17T03:44:48.723Z,13.93
2019-02-17T03:47:15.820Z,13.83
2019-02-17T03:49:43.773Z,15.97
2019-02-17T03:52:10.902Z,13.63
2019-02-17T03:54:38.004Z,14.00
2019-02-17T03:57:05.627Z,15.23
2019-02-17T03:59:33.562Z,12.20
2019-02-17T04:02:01.035Z,14.23
2019-02-17T04:04:28.193Z,15.23
2019-02-17T04:06:55.632Z,13.37
2019-02-17T04:09:22.732Z,15.93
2019-02-17T04:11:49.965Z,15.13
2019-02-17T04:14:17.060Z,12.83
2019-02-17T04:16:44.184Z,13.87
2019-02-17T04:19:11.795Z,15.47
2019-02-17T04:21:38.917Z,14.53
2019-02-17T04:24:05.998Z,16.30
2019-02-17T04:26:33.220Z,14.67
2019-02-17T04:29:00.333Z,13.20
2019-02-17T04:31:27.626Z,15.20
2019-02-17T04:33:54.989Z,16.03
2019-02-17T04:36:22.105Z,14.30
2019-02-17T04:38:49.499Z,13.70
2019-02-17T04:41:17.144Z,13.77
2019-02-17T04:43:44.926Z,14.17
2019-02-17T04:46:12.390Z,13.20
2019-02-17T04:48:39.526Z,15.73
2019-02-17T04:51:06.990Z,15.60
2019-02-17T04:53:34.408Z,14.77
2019-02-17T04:56:02.201Z,15.37
2019-02-17T04:58:29.800Z,15.27
2019-02-17T05:00:57.301Z,15.53
2019-02-17T05:03:24.870Z,14.43
2019-02-17T05:05:52.750Z,16.30
2019-02-17T05:08:19.876Z,15.93
2019-02-17T05:10:47.058Z,13.63
2019-02-17T05:13:14.505Z,13.87
2019-02-17T05:15:41.971Z,17.00
2019-02-17T05:18:09.528Z,15.07
2019-02-17T05:20:36.640Z,19.07
2019-02-17T05:23:03.744Z,15.70
2019-02-17T05:25:31.586Z,15.57
2019-02-17T05:27:58.843Z,16.43
2019-02-17T05:30:25.928Z,16.13
2019-02-17T05:32:53.515Z,14.63
2019-02-17T05:35:20.614Z,14.23
2019-02-17T05:37:48.015Z,12.90
2019-02-17T05:40:15.520Z,14.60
2019-02-17T05:42:42.705Z,13.87
2019-02-17T05:45:09.810Z,15.60
2019-02-17T05:47:56.483Z,16.57
2019-02-17T05:50:23.132Z,15.33
2019-02-17T05:52:50.065Z,12.93
2019-02-17T05:55:17.274Z,17.23
2019-02-17T05:57:44.012Z,15.63
2019-02-17T06:02:59.400Z,16.93
2019-02-17T06:05:45.955Z,14.57
2019-02-17T06:08:12.754Z,15.33
2019-02-17T06:10:39.773Z,16.17
2019-02-17T06:13:07.354Z,15.13
2019-02-17T06:15:34.050Z,20.27
2019-02-17T06:18:01.062Z,15.23
2019-02-17T06:20:27.799Z,15.40
2019-02-17T06:22:54.879Z,17.90
2019-02-17T06:25:21.504Z,16.00
2019-02-17T06:27:49.057Z,15.17
2019-02-17T06:30:15.828Z,16.73
2019-02-17T06:32:42.824Z,14.50
2019-02-17T06:35:09.569Z,15.53
2019-02-17T06:37:36.859Z,14.40
2019-02-17T06:40:04.048Z,15.97
2019-02-17T06:42:30.665Z,19.07
2019-02-17T06:45:10.518Z,18.20
2019-02-17T06:47:37.441Z,18.90
2019-02-17T06:50:04.878Z,18.83
2019-02-17T06:52:31.966Z,19.03
2019-02-17T06:55:18.646Z,19.33
2019-02-17T06:57:46.241Z,16.90
2019-02-17T07:00:20.301Z,17.73
2019-02-17T07:02:47.710Z,18.30
2019-02-17T07:05:33.967Z,20.80
2019-02-17T07:08:02.089Z,19.77
2019-02-17T07:10:28.892Z,21.77
2019-02-17T07:12:55.528Z,20.47
2019-02-17T07:15:24.037Z,22.10
2019-02-17T07:17:50.765Z,19.07
2019-02-17T07:20:17.790Z,20.57
2019-02-17T07:22:44.533Z,21.90
2019-02-17T07:25:12.227Z,21.10
2019-02-17T07:27:39.267Z,23.63
2019-02-17T07:30:06.142Z,20.03
2019-02-17T07:32:32.888Z,22.10
2019-02-17T07:35:00.480Z,21.13
2019-02-17T07:37:33.470Z,23.97
2019-02-17T07:39:56.756Z,21.43
2019-02-17T07:42:23.649Z,21.97
2019-02-17T07:44:51.003Z,23.73
2019-02-17T07:47:18.159Z,22.13
2019-02-17T07:49:46.525Z,19.17
2019-02-17T07:52:13.372Z,20.70
2019-02-17T07:54:40.001Z,19.50
2019-02-17T07:57:06.727Z,19.80
2019-02-17T07:59:33.856Z,18.07
2019-02-17T08:02:00.573Z,18.27
2019-02-17T08:04:27.214Z,18.83
2019-02-17T08:06:53.963Z,18.57
2019-02-17T08:09:20.965Z,19.87
2019-02-17T08:11:47.960Z,18.17
2019-02-17T08:14:14.694Z,19.73
2019-02-17T08:16:41.716Z,16.30
2019-02-17T08:19:09.028Z,17.17
2019-02-17T08:21:36.084Z,16.43
2019-02-17T08:24:02.722Z,18.57
2019-02-17T08:26:29.928Z,17.30
2019-02-17T08:28:57.204Z,19.20
2019-02-17T08:31:24.064Z,18.33
2019-02-17T08:33:50.693Z,15.87
2019-02-17T08:36:17.599Z,18.73
2019-02-17T08:38:44.325Z,18.23
2019-02-17T08:41:11.295Z,16.37
2019-02-17T08:43:38.226Z,18.73
2019-02-17T08:46:06.008Z,17.20
2019-02-17T08:48:33.128Z,16.67
2019-02-17T08:51:00.120Z,16.83
2019-02-17T08:53:27.137Z,15.63
2019-02-17T08:55:53.767Z,16.73
2019-02-17T08:58:20.676Z,19.27
2019-02-17T09:00:47.415Z,18.57
2019-02-17T09:03:14.272Z,18.43
2019-02-17T09:05:44.128Z,16.63
2019-02-17T09:08:10.189Z,18.93
2019-02-17T09:10:36.917Z,18.23
2019-02-17T09:13:03.834Z,18.07
2019-02-17T09:15:30.577Z,17.10
2019-02-17T09:17:57.432Z,17.90
2019-02-17T09:20:24.860Z,20.43
2019-02-17T09:22:51.608Z,17.47
2019-02-17T09:25:18.785Z,17.63
2019-02-17T09:27:45.869Z,17.00
2019-02-17T09:30:14.022Z,22.07
2019-02-17T09:32:41.031Z,17.20
2019-02-17T09:35:28.161Z,18.60
2019-02-17T09:37:55.263Z,17.93
2019-02-17T09:40:22.671Z,19.10
2019-02-17T09:42:49.834Z,18.73
2019-02-17T09:45:17.293Z,18.13
2019-02-17T09:47:44.727Z,17.17
2019-02-17T09:50:24.038Z,18.17
2019-02-17T09:52:50.909Z,19.03
2019-02-17T09:55:17.623Z,18.63
2019-02-17T09:57:44.796Z,16.87
2019-02-17T10:00:11.747Z,19.10
2019-02-17T10:02:38.576Z,18.17
2019-02-17T10:05:05.954Z,21.87
2019-02-17T10:07:32.873Z,18.37
2019-02-17T10:09:59.719Z,19.23
2019-02-17T10:12:27.010Z,17.13
2019-02-17T10:14:54.351Z,16.43
2019-02-17T10:17:21.580Z,18.00
2019-02-17T10:19:48.334Z,18.07
2019-02-17T10:22:15.361Z,17.83
2019-02-17T10:24:42.089Z,16.40
2019-02-17T10:27:08.947Z,17.53
2019-02-17T10:29:35.564Z,16.97
2019-02-17T10:32:02.611Z,17.73
2019-02-17T10:34:29.619Z,19.03
2019-02-17T10:36:56.337Z,17.23
2019-02-17T10:39:23.075Z,18.03
2019-02-17T10:41:50.284Z,17.87
2019-02-17T10:44:17.038Z,17.67
2019-02-17T10:46:43.873Z,20.57
2019-02-17T10:49:10.712Z,16.83
2019-02-17T10:51:37.608Z,18.20
2019-02-17T10:54:04.704Z,17.90
2019-02-17T10:56:31.436Z,16.67
2019-02-17T10:58:58.276Z,18.67
2019-02-17T11:01:25.633Z,17.13
2019-02-17T11:04:12.319Z,16.03
2019-02-17T11:06:39.861Z,18.43
2019-02-17T11:09:28.427Z,20.43
2019-02-17T11:11:55.196Z,15.70
2019-02-17T11:14:21.936Z,16.93
2019-02-17T11:16:49.912Z,17.87
2019-02-17T11:19:16.873Z,17.87
2019-02-17T11:21:43.509Z,16.23
2019-02-17T11:24:10.625Z,19.13
2019-02-17T11:26:37.538Z,18.23
2019-02-17T11:29:45.640Z,17.13
2019-02-17T11:32:12.483Z,17.97
2019-02-17T11:34:39.199Z,18.17
2019-02-17T11:37:06.314Z,17.83
2019-02-17T11:39:33.513Z,17.17
2019-02-17T11:42:00.511Z,17.93
2019-02-17T11:44:27.398Z,18.10
2019-02-17T11:46:54.114Z,18.63
2019-02-17T11:49:20.859Z,19.27
2019-02-17T11:51:47.675Z,18.40
2019-02-17T11:54:14.413Z,18.17
2019-02-17T11:56:41.623Z,19.97
2019-02-17T11:59:08.349Z,19.13
2019-02-17T12:01:35.093Z,17.37
2019-02-17T12:04:02.186Z,20.63
2019-02-17T12:06:28.987Z,19.53
2019-02-17T12:08:55.946Z,19.10
2019-02-17T12:11:22.981Z,19.93
2019-02-17T12:13:49.685Z,22.70
2019-02-17T12:16:16.821Z,22.17
2019-02-17T12:18:43.550Z,25.13
2019-02-17T12:24:10.504Z,22.37
2019-02-17T12:26:45.807Z,24.57
2019-02-17T12:29:32.214Z,19.93
2019-02-17T12:31:58.961Z,21.47
2019-02-17T12:34:25.683Z,19.97
2019-02-17T12:36:52.473Z,22.53
2019-02-17T12:39:19.374Z,22.00
2019-02-17T12:41:46.294Z,23.60
2019-02-17T12:44:13.004Z,21.33
2019-02-17T12:46:40.466Z,22.70
2019-02-17T12:49:07.309Z,23.60
2019-02-17T12:51:34.272Z,20.00
2019-02-17T12:54:01.646Z,22.20
2019-02-17T12:56:28.683Z,20.53
2019-02-17T12:58:55.606Z,21.90
2019-02-17T13:01:22.344Z,19.83
2019-02-17T13:03:49.075Z,22.70
2019-02-17T13:06:16.107Z,23.43
2019-02-17T13:08:42.737Z,21.37
2019-02-17T13:11:09.931Z,20.60
2019-02-17T13:13:37.035Z,21.30
2019-02-17T13:16:03.862Z,23.87
2019-02-17T13:18:30.708Z,23.40
2019-02-17T13:20:57.553Z,21.80
2019-02-17T13:23:24.301Z,24.97
2019-02-17T13:25:51.530Z,23.37
2019-02-17T13:28:18.337Z,22.67
2019-02-17T13:30:45.059Z,23.73
2019-02-17T13:36:00.342Z,21.30
2019-02-17T13:38:27.054Z,25.50
2019-02-17T13:41:13.710Z,25.83
2019-02-17T13:43:41.861Z,23.40
2019-02-17T13:46:08.713Z,21.63
2019-02-17T13:48:35.579Z,23.37
2019-02-17T13:51:02.784Z,22.13
2019-02-17T13:53:29.506Z,23.93
2019-02-17T13:55:56.412Z,21.17
2019-02-17T13:58:23.237Z,23.67
2019-02-17T14:00:49.959Z,19.10
2019-02-17T14:03:17.236Z,22.20
2019-02-17T14:05:44.235Z,20.70
2019-02-17T14:08:10.883Z,21.77
2019-02-17T14:10:38.241Z,22.67
2019-02-17T14:13:05.388Z,22.53
2019-02-17T14:15:32.130Z,22.27
2019-02-17T14:17:58.982Z,24.70
2019-02-17T14:20:25.821Z,20.33
2019-02-17T14:22:52.719Z,22.10
2019-02-17T14:25:19.526Z,23.83
2019-02-17T14:27:46.160Z,21.83
2019-02-17T14:30:13.095Z,22.53
2019-02-17T14:32:40.071Z,21.73
2019-02-17T14:35:07.009Z,22.67
2019-02-17T14:37:33.875Z,23.80
2019-02-17T14:40:00.777Z,22.53
2019-02-17T14:42:27.493Z,20.80
2019-02-17T14:44:54.950Z,23.60
2019-02-17T14:47:22.108Z,24.17
2019-02-17T14:50:08.461Z,23.77
2019-02-17T14:52:35.147Z,25.10
2019-02-17T14:55:03.074Z,21.90
2019-02-17T14:57:29.862Z,25.90
2019-02-17T14:59:57.788Z,25.60
2019-02-17T15:02:27.145Z,25.73
2019-02-17T15:04:55.996Z,23.87
2019-02-17T15:07:24.078Z,25.23
2019-02-17T15:09:52.030Z,25.90
2019-02-17T15:12:20.731Z,25.30
2019-02-17T15:14:51.138Z,26.27
2019-02-17T15:17:39.287Z,23.77
2019-02-17T15:20:08.375Z,25.93
2019-02-17T15:22:34.991Z,24.90
2019-02-17T15:25:01.765Z,27.77
2019-02-17T15:27:28.562Z,24.83
2019-02-17T15:29:55.600Z,23.10
2019-02-17T15:32:22.223Z,27.00
2019-02-17T15:34:48.914Z,26.53
2019-02-17T15:37:15.642Z,25.37
2019-02-17T15:39:42.413Z,23.77
2019-02-17T15:42:09.200Z,22.53
2019-02-17T15:44:36.597Z,22.70
2019-02-17T15:47:03.822Z,22.37
2019-02-17T15:49:30.628Z,28.00
2019-02-17T15:51:57.508Z,22.77
2019-02-17T15:54:24.143Z,25.00
2019-02-17T15:56:50.937Z,24.70
2019-02-17T16:02:19.995Z,26.40
2019-02-17T16:04:47.093Z,27.60
2019-02-17T16:07:14.211Z,30.03
2019-02-17T16:09:41.643Z,30.70
2019-02-17T16:12:10.138Z,37.37
2019-02-17T16:14:37.763Z,33.37
2019-02-17T16:17:05.001Z,34.13
2019-02-17T16:19:32.472Z,31.03
2019-02-17T16:21:59.849Z,33.37
2019-02-17T16:24:27.339Z,28.03
2019-02-17T16:26:54.457Z,29.63
2019-02-17T16:29:22.185Z,27.97
2019-02-17T16:31:49.345Z,28.90
2019-02-17T16:34:16.484Z,27.77
2019-02-17T16:36:43.621Z,29.33
2019-02-17T16:39:12.197Z,22.20
2019-02-17T16:41:39.875Z,25.17
2019-02-17T16:44:08.172Z,24.00
2019-02-17T16:46:35.335Z,22.03
2019-02-17T16:49:02.626Z,22.87
2019-02-17T16:51:29.776Z,23.50
2019-02-17T16:53:57.394Z,20.50
2019-02-17T16:56:24.499Z,16.87
2019-02-17T16:58:51.976Z,25.97
2019-02-17T17:01:32.763Z,19.97
2019-02-17T17:03:59.683Z,22.57
2019-02-17T17:06:26.474Z,21.53
2019-02-17T17:08:53.663Z,21.07
2019-02-17T17:11:21.416Z,21.97
2019-02-17T17:13:48.158Z,22.00
2019-02-17T17:16:15.034Z,19.70
2019-02-17T17:18:43.012Z,22.53
2019-02-17T17:21:09.786Z,20.93
2019-02-17T17:23:36.584Z,19.40
2019-02-17T17:26:03.433Z,18.67
2019-02-17T17:28:30.434Z,17.20
2019-02-17T17:30:57.664Z,17.83
2019-02-17T17:33:24.396Z,17.53
2019-02-17T17:35:51.713Z,17.30
2019-02-17T17:38:18.493Z,18.60
2019-02-17T17:40:45.235Z,21.40
2019-02-17T17:43:11.969Z,17.57
2019-02-17T17:45:38.762Z,20.10
2019-02-17T17:48:05.721Z,16.87
2019-02-17T17:50:32.560Z,18.27
2019-02-17T17:52:59.308Z,16.57
2019-02-17T17:55:28.366Z,15.73
2019-02-17T17:57:54.698Z,16.10
2019-02-17T18:03:13.228Z,20.00
2019-02-17T18:05:40.211Z,20.57
2019-02-17T18:08:06.926Z,19.47
2019-02-17T18:10:34.255Z,22.87
2019-02-17T18:13:00.997Z,22.10
2019-02-17T18:15:27.763Z,22.00
2019-02-17T18:17:55.115Z,21.03
2019-02-17T18:20:23.172Z,21.43
2019-02-17T18:22:50.217Z,19.80
2019-02-17T18:25:17.118Z,20.93
2019-02-17T18:27:44.149Z,27.40
2019-02-17T18:30:12.243Z,21.43
2019-02-17T18:32:39.339Z,20.43
2019-02-17T18:35:06.159Z,22.87
2019-02-17T18:37:33.253Z,23.13
2019-02-17T18:39:59.914Z,21.90
2019-02-17T18:42:26.914Z,20.03
2019-02-17T18:44:53.976Z,22.00
2019-02-17T18:47:21.836Z,21.60
2019-02-17T18:49:48.452Z,20.53
2019-02-17T18:52:15.480Z,25.80
2019-02-17T18:54:42.473Z,22.67
2019-02-17T18:57:09.330Z,23.20
2019-02-17T18:59:35.982Z,22.87
2019-02-17T19:02:02.762Z,24.00
2019-02-17T19:04:29.542Z,21.80
2019-02-17T19:06:56.207Z,22.43
2019-02-17T19:09:22.894Z,21.47
2019-02-17T19:12:11.055Z,20.63
2019-02-17T19:14:37.984Z,21.83
2019-02-17T19:17:04.614Z,23.80
2019-02-17T19:19:31.239Z,22.47
2019-02-17T19:21:58.395Z,25.13
2019-02-17T19:24:25.136Z,21.50
2019-02-17T19:26:52.253Z,23.57
2019-02-17T19:29:19.065Z,21.87
2019-02-17T19:31:45.797Z,23.83
2019-02-17T19:34:12.809Z,24.87
2019-02-17T19:36:40.278Z,23.57
2019-02-17T19:39:07.280Z,26.40
2019-02-17T19:41:34.282Z,23.47
2019-02-17T19:44:01.495Z,22.90
2019-02-17T19:46:47.740Z,26.60
2019-02-17T19:49:14.522Z,21.23
2019-02-17T19:51:41.618Z,23.40
2019-02-17T19:54:08.972Z,28.47
2019-02-17T19:56:35.863Z,21.73
2019-02-17T19:59:02.586Z,24.93
2019-02-17T20:01:29.325Z,23.60
2019-02-17T20:04:02.241Z,23.40
2019-02-17T20:06:28.929Z,23.93
2019-02-17T20:08:55.909Z,23.60
2019-02-17T20:11:22.743Z,25.60
2019-02-17T20:13:49.854Z,26.70
2019-02-17T20:16:16.779Z,28.50
2019-02-17T20:18:43.801Z,23.77
2019-02-17T20:21:10.885Z,27.33
2019-02-17T20:23:37.615Z,25.17
2019-02-17T20:26:04.570Z,28.77
2019-02-17T20:28:42.678Z,26.57
2019-02-17T20:31:00.523Z,23.00
2019-02-17T20:33:27.306Z,27.37
2019-02-17T20:36:02.516Z,27.63
2019-02-17T20:38:22.671Z,28.03
2019-02-17T20:40:49.448Z,26.43
2019-02-17T20:43:16.841Z,28.67
2019-02-17T20:45:44.991Z,27.50
2019-02-17T20:48:12.058Z,24.13
2019-02-17T20:50:38.882Z,25.43
2019-02-17T20:53:05.914Z,27.70
2019-02-17T20:55:33.335Z,29.87
2019-02-17T20:58:00.732Z,25.10
2019-02-17T21:00:28.340Z,24.60
2019-02-17T21:02:55.242Z,28.13
2019-02-17T21:05:22.241Z,25.20
2019-02-17T21:08:02.106Z,28.23
2019-02-17T21:10:28.832Z,25.23
2019-02-17T21:12:55.558Z,24.53
2019-02-17T21:17:57.235Z,27.77
2019-02-17T21:20:23.965Z,22.60
2019-02-17T21:22:52.932Z,28.97
2019-02-17T21:26:01.329Z,23.47
2019-02-17T21:28:28.277Z,22.43
2019-02-17T21:30:55.282Z,24.10
2019-02-17T21:33:22.100Z,23.57
2019-02-17T21:35:49.057Z,23.93
2019-02-17T21:38:16.356Z,21.97
2019-02-17T21:40:43.128Z,23.77
2019-02-17T21:43:10.198Z,25.73
2019-02-17T21:45:36.853Z,24.63
2019-02-17T21:48:04.265Z,27.03
2019-02-17T21:50:31.341Z,26.20
2019-02-17T21:52:58.494Z,24.33
2019-02-17T21:55:25.634Z,25.70
2019-02-17T21:57:52.369Z,28.17
2019-02-17T22:00:19.386Z,26.93
2019-02-17T22:02:46.074Z,28.47
2019-02-17T22:05:12.798Z,29.03
2019-02-17T22:07:39.534Z,28.07
2019-02-17T22:10:07.184Z,26.13
2019-02-17T22:12:33.807Z,27.47
2019-02-17T22:15:00.796Z,26.03
2019-02-17T22:17:27.576Z,25.87
2019-02-17T22:19:54.210Z,24.87
2019-02-17T22:22:20.933Z,26.53
2019-02-17T22:24:47.602Z,28.77
2019-02-17T22:27:14.432Z,29.33
2019-02-17T22:29:41.451Z,27.23
2019-02-17T22:32:08.252Z,28.23
2019-02-17T22:34:34.871Z,24.57
2019-02-17T22:37:01.505Z,28.13
2019-02-17T22:39:28.652Z,27.23
2019-02-17T22:42:14.894Z,25.57
2019-02-17T22:44:41.938Z,22.87
2019-02-17T22:47:08.935Z,27.60
2019-02-17T22:49:35.666Z,25.77
2019-02-17T22:52:02.759Z,27.63
2019-02-17T22:54:29.484Z,28.90
2019-02-17T22:56:56.216Z,28.03
2019-02-17T22:59:23.706Z,29.13
2019-02-17T23:01:50.434Z,29.37
2019-02-17T23:04:17.164Z,28.77
2019-02-17T23:06:53.600Z,26.70
2019-02-17T23:09:12.847Z,23.70
2019-02-17T23:11:39.942Z,26.77
2019-02-17T23:14:06.711Z,26.17
2019-02-17T23:16:33.606Z,27.83
2019-02-17T23:19:00.359Z,23.93
2019-02-17T23:21:27.397Z,27.60
2019-02-17T23:23:54.125Z,25.93
2019-02-17T23:26:21.225Z,22.70
2019-02-17T23:28:48.372Z,26.13
2019-02-17T23:31:14.997Z,26.57
2019-02-17T23:33:41.752Z,25.70
2019-02-17T23:36:08.878Z,27.83
2019-02-17T23:38:35.769Z,25.33
2019-02-17T23:41:02.489Z,30.20
2019-02-17T23:43:29.553Z,26.10
2019-02-17T23:45:56.565Z,27.83
2019-02-17T23:48:23.356Z,26.73
2019-02-17T23:50:50.410Z,26.07
2019-02-17T23:53:17.135Z,25.33
2019-02-17T23:55:43.987Z,26.10
2019-02-17T23:58:11.126Z,27.70
